<?xml version="1.0" encoding="UTF-8" standalone="no" ?>
<gpx xmlns="http://www.topografix.com/GPX/1/1" xmlns:xsi="http://www.w3.org/2001/XMLSchema-instance" xsi:schemaLocation="http://www.topografix.com/GPX/1/1 http://www.topografix.com/GPX/1/1/gpx.xsd" version="1.1" creator="VisuGPX - https://www.visugpx.com">
  <metadata>
    <name>ARQUES LA SEYNE SUR MER 1497 KM</name>
    <desc><![CDATA[Rando de Arques dans le Pas de Calais jusque La Seyne sur Mer dans le Var, 1497 km]]></desc>
  </metadata>
  <trk>
    <name><![CDATA[2 -LILLERS PARC HOLLAIN 25.2 KM]]></name>
    <extensions>
      <line xmlns="http://www.topografix.com/GPX/gpx_style/0/2">
        <color>00FF00</color>
        <width>4</width>
      </line>
    </extensions>
    <trkseg>
      <trkpt lat="50.56903" lon="2.4763">
        <ele>28</ele>
        <time>2021-10-05T09:32:39+02:00</time>
      </trkpt>
      <trkpt lat="50.56694" lon="2.47729">
        <ele>28</ele>
        <time>2021-10-05T09:32:44+02:00</time>
      </trkpt>
      <trkpt lat="50.56583" lon="2.47809">
        <ele>27</ele>
        <time>2021-10-05T09:32:49+02:00</time>
      </trkpt>
      <trkpt lat="50.56505" lon="2.47988">
        <ele>26</ele>
        <time>2021-10-05T09:32:54+02:00</time>
      </trkpt>
      <trkpt lat="50.56416" lon="2.48045">
        <ele>27</ele>
        <time>2021-10-05T09:32:59+02:00</time>
      </trkpt>
      <trkpt lat="50.56352" lon="2.48057">
        <ele>29</ele>
        <time>2021-10-05T09:33:04+02:00</time>
      </trkpt>
      <trkpt lat="50.56229" lon="2.48164">
        <ele>29</ele>
        <time>2021-10-05T09:33:09+02:00</time>
      </trkpt>
      <trkpt lat="50.56159" lon="2.48241">
        <ele>29</ele>
        <time>2021-10-05T09:33:14+02:00</time>
      </trkpt>
      <trkpt lat="50.56089" lon="2.48409">
        <ele>30</ele>
        <time>2021-10-05T09:33:19+02:00</time>
      </trkpt>
      <trkpt lat="50.56042" lon="2.48605">
        <ele>25</ele>
        <time>2021-10-05T09:33:24+02:00</time>
      </trkpt>
      <trkpt lat="50.5598" lon="2.48986">
        <ele>29</ele>
        <time>2021-10-05T09:33:29+02:00</time>
      </trkpt>
      <trkpt lat="50.55827" lon="2.49043">
        <ele>28</ele>
        <time>2021-10-05T09:33:34+02:00</time>
      </trkpt>
      <trkpt lat="50.55718" lon="2.49071">
        <ele>28</ele>
        <time>2021-10-05T09:33:39+02:00</time>
      </trkpt>
      <trkpt lat="50.55606" lon="2.49153">
        <ele>31</ele>
        <time>2021-10-05T09:33:44+02:00</time>
      </trkpt>
      <trkpt lat="50.55502" lon="2.4919">
        <ele>31</ele>
        <time>2021-10-05T09:33:49+02:00</time>
      </trkpt>
      <trkpt lat="50.55328" lon="2.49206">
        <ele>31</ele>
        <time>2021-10-05T09:33:54+02:00</time>
      </trkpt>
      <trkpt lat="50.5525" lon="2.49202">
        <ele>31</ele>
        <time>2021-10-05T09:33:59+02:00</time>
      </trkpt>
      <trkpt lat="50.55149" lon="2.49215">
        <ele>30</ele>
        <time>2021-10-05T09:34:04+02:00</time>
      </trkpt>
      <trkpt lat="50.55034" lon="2.49251">
        <ele>28</ele>
        <time>2021-10-05T09:34:09+02:00</time>
      </trkpt>
      <trkpt lat="50.54902" lon="2.4919">
        <ele>27</ele>
        <time>2021-10-05T09:34:14+02:00</time>
      </trkpt>
      <trkpt lat="50.54795" lon="2.49096">
        <ele>26</ele>
        <time>2021-10-05T09:34:19+02:00</time>
      </trkpt>
      <trkpt lat="50.54528" lon="2.49337">
        <ele>32</ele>
        <time>2021-10-05T09:34:24+02:00</time>
      </trkpt>
      <trkpt lat="50.54006" lon="2.49264">
        <ele>34</ele>
        <time>2021-10-05T09:34:29+02:00</time>
      </trkpt>
      <trkpt lat="50.53681" lon="2.49362">
        <ele>30</ele>
        <time>2021-10-05T09:34:34+02:00</time>
      </trkpt>
      <trkpt lat="50.53517" lon="2.49509">
        <ele>32</ele>
        <time>2021-10-05T09:34:39+02:00</time>
      </trkpt>
      <trkpt lat="50.53236" lon="2.49574">
        <ele>41</ele>
        <time>2021-10-05T09:34:44+02:00</time>
      </trkpt>
      <trkpt lat="50.53005" lon="2.49746">
        <ele>44</ele>
        <time>2021-10-05T09:34:49+02:00</time>
      </trkpt>
      <trkpt lat="50.5287" lon="2.49771">
        <ele>41</ele>
        <time>2021-10-05T09:34:54+02:00</time>
      </trkpt>
      <trkpt lat="50.52844" lon="2.49832">
        <ele>39</ele>
        <time>2021-10-05T09:34:59+02:00</time>
      </trkpt>
      <trkpt lat="50.52727" lon="2.49922">
        <ele>36</ele>
        <time>2021-10-05T09:35:04+02:00</time>
      </trkpt>
      <trkpt lat="50.52537" lon="2.50278">
        <ele>38</ele>
        <time>2021-10-05T09:35:09+02:00</time>
      </trkpt>
      <trkpt lat="50.52625" lon="2.50376">
        <ele>38</ele>
        <time>2021-10-05T09:35:14+02:00</time>
      </trkpt>
      <trkpt lat="50.52693" lon="2.50482">
        <ele>38</ele>
        <time>2021-10-05T09:35:19+02:00</time>
      </trkpt>
      <trkpt lat="50.52649" lon="2.50535">
        <ele>39</ele>
        <time>2021-10-05T09:35:24+02:00</time>
      </trkpt>
      <trkpt lat="50.52451" lon="2.50662">
        <ele>42</ele>
        <time>2021-10-05T09:35:29+02:00</time>
      </trkpt>
      <trkpt lat="50.52418" lon="2.50756">
        <ele>39</ele>
        <time>2021-10-05T09:35:34+02:00</time>
      </trkpt>
      <trkpt lat="50.52327" lon="2.51173">
        <ele>43</ele>
        <time>2021-10-05T09:35:39+02:00</time>
      </trkpt>
      <trkpt lat="50.52267" lon="2.51312">
        <ele>44</ele>
        <time>2021-10-05T09:35:44+02:00</time>
      </trkpt>
      <trkpt lat="50.52214" lon="2.51372">
        <ele>45</ele>
        <time>2021-10-05T09:35:49+02:00</time>
      </trkpt>
      <trkpt lat="50.5183" lon="2.50878">
        <ele>55</ele>
        <time>2021-10-05T09:35:54+02:00</time>
      </trkpt>
      <trkpt lat="50.51611" lon="2.50581">
        <ele>61</ele>
        <time>2021-10-05T09:35:59+02:00</time>
      </trkpt>
      <trkpt lat="50.51602" lon="2.5051">
        <ele>63</ele>
        <time>2021-10-05T09:36:04+02:00</time>
      </trkpt>
      <trkpt lat="50.51551" lon="2.50379">
        <ele>67</ele>
        <time>2021-10-05T09:36:09+02:00</time>
      </trkpt>
      <trkpt lat="50.5147" lon="2.50459">
        <ele>68</ele>
        <time>2021-10-05T09:36:14+02:00</time>
      </trkpt>
      <trkpt lat="50.51393" lon="2.50303">
        <ele>73</ele>
        <time>2021-10-05T09:36:19+02:00</time>
      </trkpt>
      <trkpt lat="50.51352" lon="2.50328">
        <ele>74</ele>
        <time>2021-10-05T09:36:24+02:00</time>
      </trkpt>
      <trkpt lat="50.51268" lon="2.50328">
        <ele>79</ele>
        <time>2021-10-05T09:36:29+02:00</time>
      </trkpt>
      <trkpt lat="50.51214" lon="2.50197">
        <ele>85</ele>
        <time>2021-10-05T09:36:34+02:00</time>
      </trkpt>
      <trkpt lat="50.51082" lon="2.50288">
        <ele>89</ele>
        <time>2021-10-05T09:36:39+02:00</time>
      </trkpt>
      <trkpt lat="50.51028" lon="2.50117">
        <ele>90</ele>
        <time>2021-10-05T09:36:44+02:00</time>
      </trkpt>
      <trkpt lat="50.50954" lon="2.50001">
        <ele>89</ele>
        <time>2021-10-05T09:36:49+02:00</time>
      </trkpt>
      <trkpt lat="50.50893" lon="2.50096">
        <ele>84</ele>
        <time>2021-10-05T09:36:54+02:00</time>
      </trkpt>
      <trkpt lat="50.50829" lon="2.49784">
        <ele>80</ele>
        <time>2021-10-05T09:36:59+02:00</time>
      </trkpt>
      <trkpt lat="50.50752" lon="2.49809">
        <ele>68</ele>
        <time>2021-10-05T09:37:04+02:00</time>
      </trkpt>
      <trkpt lat="50.50681" lon="2.49884">
        <ele>55</ele>
        <time>2021-10-05T09:37:09+02:00</time>
      </trkpt>
      <trkpt lat="50.50624" lon="2.49895">
        <ele>51</ele>
        <time>2021-10-05T09:37:14+02:00</time>
      </trkpt>
      <trkpt lat="50.50267" lon="2.50172">
        <ele>64</ele>
        <time>2021-10-05T09:37:19+02:00</time>
      </trkpt>
      <trkpt lat="50.50184" lon="2.50268">
        <ele>64</ele>
        <time>2021-10-05T09:37:24+02:00</time>
      </trkpt>
      <trkpt lat="50.50207" lon="2.50565">
        <ele>56</ele>
        <time>2021-10-05T09:37:29+02:00</time>
      </trkpt>
      <trkpt lat="50.5012" lon="2.50611">
        <ele>48</ele>
        <time>2021-10-05T09:37:34+02:00</time>
      </trkpt>
      <trkpt lat="50.50059" lon="2.50656">
        <ele>42</ele>
        <time>2021-10-05T09:37:39+02:00</time>
      </trkpt>
      <trkpt lat="50.50033" lon="2.50717">
        <ele>39</ele>
        <time>2021-10-05T09:37:44+02:00</time>
      </trkpt>
      <trkpt lat="50.50046" lon="2.50782">
        <ele>39</ele>
        <time>2021-10-05T09:37:49+02:00</time>
      </trkpt>
      <trkpt lat="50.50011" lon="2.50863">
        <ele>38</ele>
        <time>2021-10-05T09:37:54+02:00</time>
      </trkpt>
      <trkpt lat="50.49953" lon="2.50813">
        <ele>38</ele>
        <time>2021-10-05T09:37:59+02:00</time>
      </trkpt>
      <trkpt lat="50.49911" lon="2.50818">
        <ele>38</ele>
        <time>2021-10-05T09:38:04+02:00</time>
      </trkpt>
      <trkpt lat="50.4985" lon="2.50742">
        <ele>39</ele>
        <time>2021-10-05T09:38:09+02:00</time>
      </trkpt>
      <trkpt lat="50.49831" lon="2.50661">
        <ele>40</ele>
        <time>2021-10-05T09:38:14+02:00</time>
      </trkpt>
      <trkpt lat="50.49796" lon="2.50661">
        <ele>42</ele>
        <time>2021-10-05T09:38:19+02:00</time>
      </trkpt>
      <trkpt lat="50.49735" lon="2.5034">
        <ele>42</ele>
        <time>2021-10-05T09:38:24+02:00</time>
      </trkpt>
      <trkpt lat="50.49649" lon="2.5018">
        <ele>46</ele>
        <time>2021-10-05T09:38:29+02:00</time>
      </trkpt>
      <trkpt lat="50.4958" lon="2.50087">
        <ele>46</ele>
        <time>2021-10-05T09:38:34+02:00</time>
      </trkpt>
      <trkpt lat="50.49454" lon="2.50035">
        <ele>43</ele>
        <time>2021-10-05T09:38:39+02:00</time>
      </trkpt>
      <trkpt lat="50.49355" lon="2.4994">
        <ele>41</ele>
        <time>2021-10-05T09:38:44+02:00</time>
      </trkpt>
      <trkpt lat="50.49295" lon="2.50099">
        <ele>45</ele>
        <time>2021-10-05T09:38:49+02:00</time>
      </trkpt>
      <trkpt lat="50.49196" lon="2.50117">
        <ele>49</ele>
        <time>2021-10-05T09:38:54+02:00</time>
      </trkpt>
      <trkpt lat="50.48787" lon="2.50689">
        <ele>93</ele>
        <time>2021-10-05T09:38:59+02:00</time>
      </trkpt>
      <trkpt lat="50.48935" lon="2.51051">
        <ele>91</ele>
        <time>2021-10-05T09:39:04+02:00</time>
      </trkpt>
      <trkpt lat="50.48875" lon="2.51121">
        <ele>95</ele>
        <time>2021-10-05T09:39:09+02:00</time>
      </trkpt>
      <trkpt lat="50.48835" lon="2.5108">
        <ele>97</ele>
        <time>2021-10-05T09:39:14+02:00</time>
      </trkpt>
      <trkpt lat="50.48741" lon="2.51221">
        <ele>97</ele>
        <time>2021-10-05T09:39:19+02:00</time>
      </trkpt>
      <trkpt lat="50.48285" lon="2.51526">
        <ele>85</ele>
        <time>2021-10-05T09:39:24+02:00</time>
      </trkpt>
      <trkpt lat="50.48282" lon="2.51903">
        <ele>83</ele>
        <time>2021-10-05T09:39:29+02:00</time>
      </trkpt>
      <trkpt lat="50.48336" lon="2.52844">
        <ele>74</ele>
        <time>2021-10-05T09:39:34+02:00</time>
      </trkpt>
      <trkpt lat="50.48134" lon="2.52963">
        <ele>62</ele>
        <time>2021-10-05T09:39:39+02:00</time>
      </trkpt>
      <trkpt lat="50.47981" lon="2.52942">
        <ele>53</ele>
        <time>2021-10-05T09:39:44+02:00</time>
      </trkpt>
      <trkpt lat="50.47817" lon="2.53118">
        <ele>41</ele>
        <time>2021-10-05T09:39:49+02:00</time>
      </trkpt>
      <trkpt lat="50.47645" lon="2.5311">
        <ele>42</ele>
        <time>2021-10-05T09:39:54+02:00</time>
      </trkpt>
      <trkpt lat="50.47642" lon="2.53217">
        <ele>40</ele>
        <time>2021-10-05T09:39:59+02:00</time>
      </trkpt>
      <trkpt lat="50.47501" lon="2.53465">
        <ele>55</ele>
        <time>2021-10-05T09:40:04+02:00</time>
      </trkpt>
      <trkpt lat="50.47575" lon="2.53579">
        <ele>49</ele>
        <time>2021-10-05T09:40:09+02:00</time>
      </trkpt>
      <trkpt lat="50.47577" lon="2.53666">
        <ele>49</ele>
        <time>2021-10-05T09:40:14+02:00</time>
      </trkpt>
      <trkpt lat="50.47545" lon="2.53745">
        <ele>53</ele>
        <time>2021-10-05T09:40:19+02:00</time>
      </trkpt>
      <trkpt lat="50.47487" lon="2.53672">
        <ele>61</ele>
        <time>2021-10-05T09:40:24+02:00</time>
      </trkpt>
      <trkpt lat="50.47276" lon="2.53062">
        <ele>53</ele>
        <time>2021-10-05T09:40:29+02:00</time>
      </trkpt>
      <trkpt lat="50.47211" lon="2.52875">
        <ele>55</ele>
        <time>2021-10-05T09:40:34+02:00</time>
      </trkpt>
      <trkpt lat="50.47148" lon="2.5272">
        <ele>53</ele>
        <time>2021-10-05T09:40:39+02:00</time>
      </trkpt>
      <trkpt lat="50.47022" lon="2.52568">
        <ele>52</ele>
        <time>2021-10-05T09:40:44+02:00</time>
      </trkpt>
      <trkpt lat="50.46882" lon="2.52505">
        <ele>45</ele>
        <time>2021-10-05T09:40:49+02:00</time>
      </trkpt>
      <trkpt lat="50.46539" lon="2.52447">
        <ele>48</ele>
        <time>2021-10-05T09:40:54+02:00</time>
      </trkpt>
      <trkpt lat="50.46415" lon="2.52485">
        <ele>50</ele>
        <time>2021-10-05T09:40:59+02:00</time>
      </trkpt>
      <trkpt lat="50.45777" lon="2.52859">
        <ele>53</ele>
        <time>2021-10-05T09:41:04+02:00</time>
      </trkpt>
      <trkpt lat="50.45677" lon="2.52872">
        <ele>55</ele>
        <time>2021-10-05T09:41:09+02:00</time>
      </trkpt>
      <trkpt lat="50.45573" lon="2.5285">
        <ele>56</ele>
        <time>2021-10-05T09:41:14+02:00</time>
      </trkpt>
      <trkpt lat="50.45284" lon="2.52658">
        <ele>58</ele>
        <time>2021-10-05T09:41:19+02:00</time>
      </trkpt>
      <trkpt lat="50.45054" lon="2.52481">
        <ele>57</ele>
        <time>2021-10-05T09:41:24+02:00</time>
      </trkpt>
      <trkpt lat="50.44434" lon="2.53426">
        <ele>71</ele>
        <time>2021-10-05T09:41:29+02:00</time>
      </trkpt>
      <trkpt lat="50.44371" lon="2.53486">
        <ele>69</ele>
        <time>2021-10-05T09:41:34+02:00</time>
      </trkpt>
      <trkpt lat="50.4433" lon="2.5357">
        <ele>70</ele>
        <time>2021-10-05T09:41:39+02:00</time>
      </trkpt>
      <trkpt lat="50.44036" lon="2.54087">
        <ele>72</ele>
        <time>2021-10-05T09:41:44+02:00</time>
      </trkpt>
      <trkpt lat="50.44041" lon="2.54315">
        <ele>69</ele>
        <time>2021-10-05T09:41:49+02:00</time>
      </trkpt>
      <trkpt lat="50.44067" lon="2.54667">
        <ele>69</ele>
        <time>2021-10-05T09:41:54+02:00</time>
      </trkpt>
      <trkpt lat="50.43984" lon="2.54924">
        <ele>66</ele>
        <time>2021-10-05T09:41:59+02:00</time>
      </trkpt>
      <trkpt lat="50.44026" lon="2.55073">
        <ele>65</ele>
        <time>2021-10-05T09:42:04+02:00</time>
      </trkpt>
      <trkpt lat="50.44007" lon="2.55147">
        <ele>64</ele>
        <time>2021-10-05T09:42:09+02:00</time>
      </trkpt>
      <trkpt lat="50.43952" lon="2.5519">
        <ele>66</ele>
        <time>2021-10-05T09:42:14+02:00</time>
      </trkpt>
      <trkpt lat="50.43961" lon="2.55304">
        <ele>71</ele>
        <time>2021-10-05T09:42:19+02:00</time>
      </trkpt>
      <trkpt lat="50.44018" lon="2.55434">
        <ele>75</ele>
        <time>2021-10-05T09:42:24+02:00</time>
      </trkpt>
      <trkpt lat="50.44168" lon="2.55527">
        <ele>75</ele>
        <time>2021-10-05T09:42:29+02:00</time>
      </trkpt>
      <trkpt lat="50.43746" lon="2.56011">
        <ele>86</ele>
        <time>2021-10-05T09:42:34+02:00</time>
      </trkpt>
      <trkpt lat="50.43675" lon="2.5608">
        <ele>82</ele>
        <time>2021-10-05T09:42:39+02:00</time>
      </trkpt>
      <trkpt lat="50.43512" lon="2.56372">
        <ele>84</ele>
        <time>2021-10-05T09:42:44+02:00</time>
      </trkpt>
      <trkpt lat="50.43754" lon="2.56721">
        <ele>106</ele>
        <time>2021-10-05T09:42:49+02:00</time>
      </trkpt>
      <trkpt lat="50.43917" lon="2.57124">
        <ele>125</ele>
        <time>2021-10-05T09:42:54+02:00</time>
      </trkpt>
      <trkpt lat="50.43989" lon="2.57173">
        <ele>139</ele>
        <time>2021-10-05T09:42:59+02:00</time>
      </trkpt>
      <trkpt lat="50.44096" lon="2.57165">
        <ele>151</ele>
        <time>2021-10-05T09:43:04+02:00</time>
      </trkpt>
      <trkpt lat="50.44316" lon="2.57397">
        <ele>145</ele>
        <time>2021-10-05T09:43:09+02:00</time>
      </trkpt>
      <trkpt lat="50.4421" lon="2.57425">
        <ele>161</ele>
        <time>2021-10-05T09:43:14+02:00</time>
      </trkpt>
      <trkpt lat="50.44027" lon="2.57634">
        <ele>179</ele>
        <time>2021-10-05T09:43:19+02:00</time>
      </trkpt>
      <trkpt lat="50.43968" lon="2.5775">
        <ele>182</ele>
        <time>2021-10-05T09:43:24+02:00</time>
      </trkpt>
      <trkpt lat="50.43883" lon="2.57891">
        <ele>186</ele>
        <time>2021-10-05T09:43:29+02:00</time>
      </trkpt>
      <trkpt lat="50.43892" lon="2.57984">
        <ele>188</ele>
        <time>2021-10-05T09:43:34+02:00</time>
      </trkpt>
      <trkpt lat="50.43707" lon="2.5827">
        <ele>181</ele>
        <time>2021-10-05T09:43:39+02:00</time>
      </trkpt>
      <trkpt lat="50.43709" lon="2.58381">
        <ele>181</ele>
        <time>2021-10-05T09:43:44+02:00</time>
      </trkpt>
    </trkseg>
  </trk>
</gpx>